Time,TemperatureF,DewpointF,PressureIn,WindDirection,WindDirectionDegrees,WindSpeedMPH,WindSpeedGustMPH,Humidity,HourlyPrecipIn,Conditions,Clouds,dailyrainin,SolarRadiationWatts/m^2,SoftwareType,DateUTC
2013-03-24 00:02:00,57.0,56.0,-100.00,SE,131,3.0,8.0,97,0.02,,,0.07,0.000000,,2013-03-24 05:02:00,
2013-03-24 00:12:00,57.0,56.0,-100.00,SE,131,3.0,8.0,97,0.02,,,0.07,0.000000,,2013-03-24 05:12:00,
2013-03-24 00:43:00,59.0,58.0,-100.00,SE,138,3.0,10.0,97,0.00,,,0.07,0.000000,,2013-03-24 05:43:00,
2013-03-24 00:52:00,59.0,58.0,-100.00,SE,138,3.0,10.0,97,0.00,,,0.07,0.000000,,2013-03-24 05:52:00,
2013-03-24 01:02:00,59.0,58.0,-100.00,SE,138,3.0,10.0,97,0.00,,,0.07,0.000000,,2013-03-24 06:02:00,
2013-03-24 01:12:00,59.0,58.0,-100.00,SE,138,3.0,10.0,97,0.00,,,0.07,0.000000,,2013-03-24 06:12:00,
2013-03-24 01:42:00,60.0,59.0,-100.00,ESE,115,1.0,7.0,98,0.01,,,0.08,0.000000,,2013-03-24 06:42:00,
2013-03-24 02:02:00,60.0,59.0,-100.00,ESE,115,1.0,7.0,98,0.01,,,0.08,0.000000,,2013-03-24 07:02:00,
2013-03-24 02:12:00,60.0,59.0,-100.00,ESE,115,1.0,7.0,98,0.01,,,0.08,0.000000,,2013-03-24 07:12:00,
2013-03-24 02:42:00,61.0,60.0,-100.00,South,183,1.0,5.0,98,0.03,,,0.11,0.000000,,2013-03-24 07:42:00,
2013-03-24 02:52:00,61.0,60.0,-100.00,South,183,1.0,5.0,98,0.03,,,0.11,0.000000,,2013-03-24 07:52:00,
2013-03-24 03:03:00,61.0,60.0,-100.00,South,183,1.0,5.0,98,0.03,,,0.11,0.000000,,2013-03-24 08:03:00,
2013-03-24 03:12:00,61.0,60.0,-100.00,South,183,1.0,5.0,98,0.03,,,0.11,0.000000,,2013-03-24 08:12:00,
2013-03-24 03:42:00,65.0,64.0,-100.00,SSW,200,4.0,8.0,98,0.01,,,0.12,0.000000,,2013-03-24 08:42:00,
2013-03-24 03:52:00,65.0,64.0,-100.00,SSW,200,4.0,8.0,98,0.01,,,0.12,0.000000,,2013-03-24 08:52:00,
2013-03-24 04:02:00,65.0,64.0,-100.00,SSW,200,4.0,8.0,98,0.01,,,0.12,0.000000,,2013-03-24 09:02:00,
2013-03-24 04:12:00,65.0,64.0,-100.00,SSW,200,4.0,8.0,98,0.01,,,0.12,0.000000,,2013-03-24 09:12:00,
2013-03-24 04:43:00,69.0,68.0,-100.00,SW,220,5.0,16.0,98,0.00,,,0.12,0.000000,,2013-03-24 09:43:00,
2013-03-24 04:52:00,69.0,68.0,-100.00,SW,220,5.0,16.0,98,0.00,,,0.12,0.000000,,2013-03-24 09:52:00,
2013-03-24 05:03:00,69.0,68.0,-100.00,SW,220,5.0,16.0,98,0.00,,,0.12,0.000000,,2013-03-24 10:03:00,
2013-03-24 05:12:00,69.0,68.0,-100.00,SW,220,5.0,16.0,98,0.00,,,0.12,0.000000,,2013-03-24 10:12:00,
2013-03-24 05:42:00,70.0,69.0,-100.00,SW,230,6.0,13.0,97,0.01,,,0.13,0.000000,,2013-03-24 10:42:00,
2013-03-24 05:52:00,70.0,69.0,-100.00,SW,230,6.0,13.0,97,0.01,,,0.13,0.000000,,2013-03-24 10:52:00,
2013-03-24 06:03:00,70.0,69.0,-100.00,SW,230,6.0,13.0,97,0.01,,,0.13,0.000000,,2013-03-24 11:03:00,
2013-03-24 06:12:00,70.0,69.0,-100.00,SW,230,6.0,13.0,97,0.01,,,0.13,0.000000,,2013-03-24 11:12:00,
2013-03-24 06:42:00,67.0,64.0,-100.00,NW,319,9.0,19.0,89,0.00,,,0.12,0.000000,,2013-03-24 11:42:00,
2013-03-24 06:52:00,67.0,64.0,-100.00,NW,319,9.0,19.0,89,0.00,,,0.12,0.000000,,2013-03-24 11:52:00,
2013-03-24 07:02:00,67.0,64.0,-100.00,NW,319,9.0,19.0,89,0.00,,,0.12,0.000000,,2013-03-24 12:02:00,
2013-03-24 07:12:00,67.0,64.0,-100.00,NW,319,9.0,19.0,89,0.00,,,0.12,0.000000,,2013-03-24 12:12:00,
2013-03-24 07:42:00,61.0,59.0,-100.00,NW,314,4.0,15.0,94,0.00,,,0.12,6.000000,,2013-03-24 12:42:00,
2013-03-24 07:52:00,61.0,59.0,-100.00,NW,314,4.0,15.0,94,0.00,,,0.12,6.000000,,2013-03-24 12:52:00,
2013-03-24 08:02:00,61.0,59.0,-100.00,NW,314,4.0,15.0,94,0.00,,,0.12,6.000000,,2013-03-24 13:02:00,
2013-03-24 08:12:00,61.0,59.0,-100.00,NW,314,4.0,15.0,94,0.00,,,0.12,6.000000,,2013-03-24 13:12:00,
2013-03-24 08:43:00,62.0,57.0,-100.00,NW,315,6.0,11.0,85,0.00,,,0.12,124.000000,,2013-03-24 13:43:00,
2013-03-24 08:52:00,62.0,57.0,-100.00,NW,315,6.0,11.0,85,0.00,,,0.12,124.000000,,2013-03-24 13:52:00,
2013-03-24 09:02:00,62.0,57.0,-100.00,NW,315,6.0,11.0,85,0.00,,,0.12,124.000000,,2013-03-24 14:02:00,
2013-03-24 09:12:00,62.0,57.0,-100.00,NW,315,6.0,11.0,85,0.00,,,0.12,124.000000,,2013-03-24 14:12:00,
2013-03-24 09:43:00,66.0,59.0,-100.00,NW,305,6.0,11.0,77,0.00,,,0.12,382.000000,,2013-03-24 14:43:00,
2013-03-24 09:52:00,66.0,59.0,-100.00,NW,305,6.0,11.0,77,0.00,,,0.12,382.000000,,2013-03-24 14:52:00,
2013-03-24 10:02:00,66.0,59.0,-100.00,NW,305,6.0,11.0,77,0.00,,,0.12,382.000000,,2013-03-24 15:02:00,
2013-03-24 10:12:00,66.0,59.0,-100.00,NW,305,6.0,11.0,77,0.00,,,0.12,382.000000,,2013-03-24 15:12:00,
2013-03-24 10:43:00,71.0,59.0,-100.00,WNW,299,3.0,9.0,67,0.00,,,0.12,597.000000,,2013-03-24 15:43:00,
2013-03-24 10:53:00,71.0,59.0,-100.00,WNW,299,3.0,9.0,67,0.00,,,0.12,597.000000,,2013-03-24 15:53:00,
2013-03-24 11:03:00,71.0,59.0,-100.00,WNW,299,3.0,9.0,67,0.00,,,0.12,597.000000,,2013-03-24 16:03:00,
2013-03-24 11:12:00,71.0,59.0,-100.00,WNW,299,3.0,9.0,67,0.00,,,0.12,597.000000,,2013-03-24 16:12:00,
2013-03-24 11:43:00,76.0,59.0,-100.00,West,278,5.0,11.0,56,0.00,,,0.12,760.000000,,2013-03-24 16:43:00,
2013-03-24 11:52:00,76.0,59.0,-100.00,West,278,5.0,11.0,56,0.00,,,0.12,760.000000,,2013-03-24 16:52:00,
2013-03-24 12:02:00,76.0,59.0,-100.00,West,278,5.0,11.0,56,0.00,,,0.12,760.000000,,2013-03-24 17:02:00,
2013-03-24 12:12:00,76.0,59.0,-100.00,West,278,5.0,11.0,56,0.00,,,0.12,760.000000,,2013-03-24 17:12:00,
2013-03-24 12:43:00,78.0,57.0,-100.00,NW,304,9.0,19.0,48,0.00,,,0.12,860.000000,,2013-03-24 17:43:00,
2013-03-24 12:53:00,78.0,57.0,-100.00,NW,304,9.0,19.0,48,0.00,,,0.12,860.000000,,2013-03-24 17:53:00,
2013-03-24 13:03:00,78.0,57.0,-100.00,NW,304,9.0,19.0,48,0.00,,,0.12,860.000000,,2013-03-24 18:03:00,
2013-03-24 13:12:00,78.0,57.0,-100.00,NW,304,9.0,19.0,48,0.00,,,0.12,860.000000,,2013-03-24 18:12:00,
2013-03-24 13:43:00,80.0,58.0,-100.00,WNW,294,7.0,18.0,47,0.00,,,0.12,890.000000,,2013-03-24 18:43:00,
2013-03-24 13:52:00,80.0,58.0,-100.00,WNW,294,7.0,18.0,47,0.00,,,0.12,890.000000,,2013-03-24 18:52:00,
2013-03-24 14:02:00,80.0,58.0,-100.00,WNW,294,7.0,18.0,47,0.00,,,0.12,890.000000,,2013-03-24 19:02:00,
2013-03-24 14:12:00,80.0,58.0,-100.00,WNW,294,7.0,18.0,47,0.00,,,0.12,890.000000,,2013-03-24 19:12:00,
2013-03-24 14:43:00,82.0,57.0,-100.00,West,276,8.0,18.0,42,0.00,,,0.12,859.000000,,2013-03-24 19:43:00,
2013-03-24 14:53:00,82.0,57.0,-100.00,West,276,8.0,18.0,42,0.00,,,0.12,859.000000,,2013-03-24 19:53:00,
2013-03-24 15:03:00,82.0,57.0,-100.00,West,276,8.0,18.0,42,0.00,,,0.12,859.000000,,2013-03-24 20:03:00,
2013-03-24 15:12:00,82.0,57.0,-100.00,West,276,8.0,18.0,42,0.00,,,0.12,859.000000,,2013-03-24 20:12:00,
2013-03-24 15:43:00,83.0,57.0,-100.00,WNW,302,5.0,18.0,41,0.00,,,0.12,756.000000,,2013-03-24 20:43:00,
2013-03-24 15:53:00,83.0,57.0,-100.00,WNW,302,5.0,18.0,41,0.00,,,0.12,756.000000,,2013-03-24 20:53:00,
2013-03-24 16:02:00,83.0,57.0,-100.00,WNW,302,5.0,18.0,41,0.00,,,0.12,756.000000,,2013-03-24 21:02:00,
2013-03-24 16:12:00,83.0,57.0,-100.00,WNW,302,5.0,18.0,41,0.00,,,0.12,756.000000,,2013-03-24 21:12:00,
2013-03-24 16:43:00,81.0,56.0,-100.00,WNW,286,8.0,20.0,42,0.00,,,0.11,333.000000,,2013-03-24 21:43:00,
2013-03-24 16:53:00,81.0,56.0,-100.00,WNW,286,8.0,20.0,42,0.00,,,0.11,333.000000,,2013-03-24 21:53:00,
2013-03-24 17:03:00,81.0,56.0,-100.00,WNW,286,8.0,20.0,42,0.00,,,0.11,333.000000,,2013-03-24 22:03:00,
2013-03-24 17:13:00,81.0,56.0,-100.00,WNW,286,8.0,20.0,42,0.00,,,0.11,333.000000,,2013-03-24 22:13:00,
2013-03-24 17:43:00,81.0,45.0,-100.00,WNW,287,11.0,27.0,28,0.00,,,0.11,336.000000,,2013-03-24 22:43:00,
2013-03-24 17:53:00,81.0,45.0,-100.00,WNW,287,11.0,27.0,28,0.00,,,0.11,336.000000,,2013-03-24 22:53:00,
2013-03-24 18:03:00,81.0,45.0,-100.00,WNW,287,11.0,27.0,28,0.00,,,0.11,336.000000,,2013-03-24 23:03:00,
2013-03-24 18:12:00,81.0,45.0,-100.00,WNW,287,11.0,27.0,28,0.00,,,0.11,336.000000,,2013-03-24 23:12:00,
2013-03-24 18:42:00,69.0,54.0,-100.00,NW,311,11.0,27.0,58,0.00,,,0.11,157.000000,,2013-03-24 23:42:00,
2013-03-24 18:53:00,69.0,54.0,-100.00,NW,311,11.0,27.0,58,0.00,,,0.11,157.000000,,2013-03-24 23:53:00,
2013-03-24 19:02:00,69.0,54.0,-100.00,NW,311,11.0,27.0,58,0.00,,,0.11,157.000000,,2013-03-25 00:02:00,
2013-03-24 19:12:00,69.0,54.0,-100.00,NW,311,11.0,27.0,58,0.00,,,0.11,157.000000,,2013-03-25 00:12:00,
2013-03-24 19:43:00,62.0,47.0,-100.00,NW,314,9.0,26.0,58,0.00,,,0.11,14.000000,,2013-03-25 00:43:00,
2013-03-24 19:53:00,62.0,47.0,-100.00,NW,314,9.0,26.0,58,0.00,,,0.11,14.000000,,2013-03-25 00:53:00,
2013-03-24 20:02:00,62.0,47.0,-100.00,NW,314,9.0,26.0,58,0.00,,,0.11,14.000000,,2013-03-25 01:02:00,
2013-03-24 20:12:00,62.0,47.0,-100.00,NW,314,9.0,26.0,58,0.00,,,0.11,14.000000,,2013-03-25 01:12:00,
2013-03-24 20:42:00,59.0,42.0,-100.00,NW,321,8.0,19.0,54,0.00,,,0.11,0.000000,,2013-03-25 01:42:00,
2013-03-24 20:52:00,59.0,42.0,-100.00,NW,321,8.0,19.0,54,0.00,,,0.11,0.000000,,2013-03-25 01:52:00,
2013-03-24 21:02:00,59.0,42.0,-100.00,NW,321,8.0,19.0,54,0.00,,,0.11,0.000000,,2013-03-25 02:02:00,
2013-03-24 21:12:00,59.0,42.0,-100.00,NW,321,8.0,19.0,54,0.00,,,0.11,0.000000,,2013-03-25 02:12:00,
2013-03-24 21:43:00,57.0,38.0,-100.00,NW,312,7.0,18.0,48,0.00,,,-99.99,0.000000,,2013-03-25 02:43:00,
2013-03-24 21:52:00,57.0,38.0,-100.00,NW,312,7.0,18.0,48,0.00,,,-99.99,0.000000,,2013-03-25 02:52:00,
2013-03-24 22:02:00,57.0,38.0,-100.00,NW,312,7.0,18.0,48,0.00,,,-99.99,0.000000,,2013-03-25 03:02:00,
2013-03-24 22:13:00,57.0,38.0,-100.00,NW,312,7.0,18.0,48,0.00,,,-99.99,0.000000,,2013-03-25 03:13:00,
2013-03-24 22:43:00,53.0,33.0,-100.00,NW,322,10.0,27.0,46,0.00,,,0.08,0.000000,,2013-03-25 03:43:00,
2013-03-24 22:53:00,53.0,33.0,-100.00,NW,322,10.0,27.0,46,0.00,,,0.08,0.000000,,2013-03-25 03:53:00,
2013-03-24 23:02:00,53.0,33.0,-100.00,NW,322,10.0,27.0,46,0.00,,,0.08,0.000000,,2013-03-25 04:02:00,
2013-03-24 23:12:00,53.0,33.0,-100.00,NW,322,10.0,27.0,46,0.00,,,0.08,0.000000,,2013-03-25 04:12:00,
2013-03-24 23:43:00,48.0,30.0,-100.00,NNW,330,10.0,25.0,50,0.00,,,0.06,0.000000,,2013-03-25 04:43:00,
2013-03-24 23:52:00,48.0,30.0,-100.00,NNW,330,10.0,25.0,50,0.00,,,0.06,0.000000,,2013-03-25 04:52:00,